Time;durP1;ratioP1;P1;durP2;ratioP2;P2;SDS_P1;SDS_P2;PMS_P1;PMS_P2;Temp;Humidity;BMP_temperature;BMP_pressure;BME280_temperature;BME280_humidity;BME280_pressure;Samples;Min_cycle;Max_cycle;Signal;HPM_P1;HPM_P2
2021/12/11 00:02:00;;;;;;;86.50;59.40;;;14.30;64.30;;;;;;5104331;29;20060;-37
2021/12/11 00:04:33;;;;;;;83.23;59.23;;;14.30;64.40;;;;;;5103673;29;20055;-39
2021/12/11 00:07:07;;;;;;;94.35;64.47;;;14.30;64.50;;;;;;5088470;29;20473;-39
2021/12/11 00:09:41;;;;;;;80.33;57.53;;;14.30;64.70;;;;;;5150815;28;20475;-35
2021/12/11 00:12:19;;;;;;;73.83;52.17;;;14.30;65.20;;;;;;5188470;28;20037;-37
2021/12/11 00:14:56;;;;;;;75.93;54.37;;;14.30;65.40;;;;;;5172261;28;20141;-37
2021/12/11 00:17:29;;;;;;;70.93;49.17;;;14.30;65.70;;;;;;5188314;28;20046;-36
2021/12/11 00:20:01;;;;;;;66.65;49.00;;;14.30;65.80;;;;;;5172091;28;20450;-40
2021/12/11 00:22:32;;;;;;;64.10;47.28;;;14.30;66.00;;;;;;5172044;28;20133;-34
2021/12/11 00:25:06;;;;;;;60.57;44.00;;;14.20;66.10;;;;;;5188117;28;20137;-41
2021/12/11 00:27:39;;;;;;;62.83;46.33;;;14.20;66.10;;;;;;5187507;28;20515;-39
2021/12/11 00:30:17;;;;;;;64.00;47.87;;;14.20;66.20;;;;;;5197548;28;20064;-36
2021/12/11 00:32:48;;;;;;;74.57;53.17;;;14.20;66.30;;;;;;5209766;28;20481;-39
2021/12/11 00:35:23;;;;;;;75.53;57.10;;;14.20;66.40;;;;;;5209709;28;20121;-36
2021/12/11 00:38:01;;;;;;;76.37;56.13;;;14.20;66.70;;;;;;5210646;28;20483;-34
2021/12/11 00:40:32;;;;;;;70.77;52.33;;;14.30;66.90;;;;;;5210966;28;20087;-33
2021/12/11 00:43:04;;;;;;;98.33;77.30;;;14.40;67.80;;;;;;5209218;28;20493;-39
2021/12/11 00:45:36;;;;;;;94.70;76.70;;;14.50;68.40;;;;;;5209319;28;20414;-38
2021/12/11 00:48:13;;;;;;;87.30;68.17;;;14.70;68.80;;;;;;5209996;28;20073;-36
2021/12/11 00:50:47;;;;;;;75.87;57.07;;;14.70;68.00;;;;;;5208606;28;20451;-35
2021/12/11 00:53:41;;;;;;;69.90;51.60;;;14.80;67.50;;;;;;5210231;28;20053;-35
2021/12/11 00:56:17;;;;;;;69.95;51.13;;;14.90;67.10;;;;;;5210224;28;20514;-38
2021/12/11 00:58:50;;;;;;;63.50;46.30;;;14.90;66.90;;;;;;5209181;28;20124;-33
2021/12/11 01:01:23;;;;;;;62.85;47.22;;;14.90;66.80;;;;;;5210502;28;20049;-33
2021/12/11 01:03:58;;;;;;;63.83;47.33;;;14.90;66.70;;;;;;5210105;28;20107;-37
2021/12/11 01:06:53;;;;;;;63.73;48.50;;;14.90;66.60;;;;;;5210297;28;20048;-39
2021/12/11 01:09:52;;;;;;;66.63;48.30;;;14.90;66.50;;;;;;5209280;28;20045;-39
2021/12/11 01:12:48;;;;;;;84.43;57.50;;;14.90;66.40;;;;;;5209087;28;20042;-38
2021/12/11 01:15:27;;;;;;;66.40;46.03;;;14.90;66.50;;;;;;5209391;28;20442;-38
2021/12/11 01:18:22;;;;;;;58.47;43.87;;;14.80;66.30;;;;;;5192910;28;20053;-41
2021/12/11 01:21:04;;;;;;;57.03;42.37;;;14.70;66.40;;;;;;5210340;28;20049;-32
2021/12/11 01:26:16;;;;;;;50.80;39.93;;;14.70;67.30;;;;;;5208668;28;20053;-35
2021/12/11 01:28:48;;;;;;;47.80;38.43;;;14.70;67.00;;;;;;5209049;28;20045;-35
2021/12/11 01:31:20;;;;;;;53.47;41.07;;;14.70;66.80;;;;;;5187599;28;20061;-38
2021/12/11 01:33:52;;;;;;;52.10;41.80;;;14.70;66.70;;;;;;5187162;28;20459;-36
2021/12/11 01:36:23;;;;;;;51.20;40.60;;;14.70;66.40;;;;;;5170343;28;20064;-34
2021/12/11 01:38:58;;;;;;;55.80;41.70;;;14.60;66.10;;;;;;5187020;28;20054;-36
2021/12/11 01:41:29;;;;;;;54.87;39.97;;;14.60;65.90;;;;;;5171262;28;20120;-31
2021/12/11 01:44:04;;;;;;;51.27;38.13;;;14.60;66.00;;;;;;5186866;28;20053;-38
2021/12/11 01:46:35;;;;;;;54.60;43.37;;;14.60;65.90;;;;;;5170542;28;20054;-38
2021/12/11 01:49:11;;;;;;;54.73;40.70;;;14.50;65.80;;;;;;5186540;28;20431;-39
2021/12/11 01:51:54;;;;;;;53.47;42.00;;;14.50;65.80;;;;;;5186807;28;20054;-35
2021/12/11 01:54:30;;;;;;;55.22;42.88;;;14.50;65.70;;;;;;5170704;28;20134;-40
2021/12/11 01:57:10;;;;;;;56.50;42.87;;;14.50;65.80;;;;;;5186907;28;20058;-39
2021/12/11 01:59:44;;;;;;;57.33;43.47;;;14.40;65.90;;;;;;5186351;28;20050;-39
2021/12/11 02:02:19;;;;;;;59.43;44.17;;;14.40;66.60;;;;;;5198309;28;20136;-37
2021/12/11 02:04:50;;;;;;;66.77;48.77;;;14.40;66.90;;;;;;5209534;28;20368;-35
2021/12/11 02:07:28;;;;;;;59.30;45.93;;;14.40;67.00;;;;;;5208099;28;20053;-41
2021/12/11 02:10:01;;;;;;;67.63;49.60;;;14.40;66.50;;;;;;5208047;28;20045;-36
2021/12/11 02:12:37;;;;;;;68.57;49.22;;;14.40;66.30;;;;;;5207905;28;20076;-36
2021/12/11 02:15:12;;;;;;;71.43;51.47;;;14.40;66.10;;;;;;5208866;28;20049;-39
2021/12/11 02:17:52;;;;;;;72.43;53.17;;;14.40;65.90;;;;;;5207513;28;20045;-37
2021/12/11 02:20:28;;;;;;;69.20;51.43;;;14.40;65.80;;;;;;5208742;28;20482;-35
2021/12/11 02:22:59;;;;;;;66.63;48.93;;;14.40;65.70;;;;;;5207850;28;20045;-42
2021/12/11 02:25:33;;;;;;;64.63;47.73;;;14.40;65.60;;;;;;5208817;28;20131;-37
2021/12/11 02:28:18;;;;;;;66.17;46.90;;;14.30;65.60;;;;;;5208728;28;20497;-35
2021/12/11 02:31:00;;;;;;;67.23;45.97;;;14.30;65.60;;;;;;5208635;28;20123;-39
2021/12/11 02:33:56;;;;;;;71.70;48.27;;;14.30;65.60;;;;;;5207929;28;20053;-39
2021/12/11 02:36:30;;;;;;;67.77;47.30;;;14.30;65.60;;;;;;5192402;28;20128;-39
2021/12/11 02:39:11;;;;;;;68.47;46.97;;;14.30;65.60;;;;;;5208795;28;20136;-34
2021/12/11 02:41:50;;;;;;;66.20;46.77;;;14.30;65.60;;;;;;5208099;28;20140;-38
2021/12/11 02:44:33;;;;;;;61.50;45.07;;;14.20;65.60;;;;;;5207831;28;20049;-33
2021/12/11 02:47:16;;;;;;;61.03;43.67;;;14.20;66.40;;;;;;5208203;28;20049;-38
2021/12/11 02:50:21;;;;;;;66.55;45.60;;;14.30;66.80;;;;;;5208843;28;20103;-41
2021/12/11 02:53:04;;;;;;;63.47;46.53;;;14.20;67.10;;;;;;5185493;28;20042;-40
2021/12/11 02:55:49;;;;;;;61.47;45.17;;;14.20;66.10;;;;;;5167977;28;20054;-40
2021/12/11 02:58:32;;;;;;;65.40;44.80;;;14.20;66.00;;;;;;5185673;28;20042;-38
2021/12/11 03:01:21;;;;;;;61.78;42.80;;;14.20;65.90;;;;;;5185495;28;20510;-39
2021/12/11 03:04:01;;;;;;;61.47;44.43;;;14.20;65.70;;;;;;5185412;28;20128;-39
2021/12/11 03:06:39;;;;;;;66.03;45.13;;;14.20;65.70;;;;;;5185118;28;20060;-35
2021/12/11 03:09:12;;;;;;;63.77;45.87;;;14.20;65.80;;;;;;5169051;28;20108;-37
2021/12/11 03:11:43;;;;;;;68.32;46.95;;;14.20;65.70;;;;;;5169072;28;20112;-39
2021/12/11 03:14:16;;;;;;;62.30;43.87;;;14.20;65.70;;;;;;5184970;28;20046;-35
2021/12/11 03:16:48;;;;;;;68.78;48.78;;;14.20;65.60;;;;;;5168559;28;20069;-38
2021/12/11 03:19:23;;;;;;;67.60;47.92;;;14.20;65.70;;;;;;5185021;28;20100;-38
2021/12/11 03:21:54;;;;;;;68.80;47.57;;;14.20;65.70;;;;;;5185141;28;20054;-42
2021/12/11 03:24:25;;;;;;;69.57;48.07;;;14.20;65.70;;;;;;5185023;28;20465;-41
2021/12/11 03:26:57;;;;;;;63.13;45.20;;;14.20;65.60;;;;;;5184721;28;20056;-34
2021/12/11 03:29:28;;;;;;;68.50;47.87;;;14.20;65.90;;;;;;5203270;28;20045;-36
2021/12/11 03:31:59;;;;;;;69.13;47.43;;;14.10;65.90;;;;;;5207310;28;20073;-38
2021/12/11 03:34:30;;;;;;;68.10;45.53;;;14.10;66.20;;;;;;5206835;28;20065;-39
2021/12/11 03:37:01;;;;;;;62.43;44.30;;;14.10;66.40;;;;;;5205212;28;20077;-33
2021/12/11 03:39:40;;;;;;;63.70;43.57;;;14.10;66.40;;;;;;5206536;28;20053;-37
2021/12/11 03:42:18;;;;;;;70.03;45.47;;;14.10;66.10;;;;;;5205656;28;20045;-39
2021/12/11 03:45:09;;;;;;;67.23;46.33;;;14.10;65.90;;;;;;5206825;28;20045;-39
2021/12/11 03:47:44;;;;;;;64.93;45.07;;;14.10;65.80;;;;;;5206814;28;20049;-35
2021/12/11 03:50:16;;;;;;;67.50;46.53;;;14.10;65.80;;;;;;5206880;28;20045;-35
2021/12/11 03:52:47;;;;;;;61.53;43.80;;;14.10;65.60;;;;;;5206773;28;20060;-40
2021/12/11 03:55:23;;;;;;;66.10;45.17;;;14.10;65.40;;;;;;5205185;28;20037;-34
2021/12/11 03:57:59;;;;;;;69.80;48.30;;;14.00;65.40;;;;;;5207100;28;20041;-36
2021/12/11 04:00:38;;;;;;;72.60;50.27;;;14.00;65.30;;;;;;5207085;28;20087;-37
2021/12/11 04:03:09;;;;;;;75.37;49.57;;;14.00;65.30;;;;;;5207621;28;20384;-39
2021/12/11 04:05:41;;;;;;;69.20;47.00;;;14.00;65.20;;;;;;5207784;28;20124;-41
2021/12/11 04:08:15;;;;;;;70.40;45.73;;;14.00;65.00;;;;;;5205960;28;20052;-38
2021/12/11 04:10:46;;;;;;;61.70;42.67;;;14.00;64.80;;;;;;5207716;28;20038;-37
2021/12/11 04:13:17;;;;;;;61.57;43.30;;;14.00;64.70;;;;;;5188739;28;20531;-40
2021/12/11 04:15:50;;;;;;;63.10;43.20;;;14.00;64.40;;;;;;5206648;28;20049;-41
2021/12/11 04:18:21;;;;;;;57.20;41.45;;;14.00;64.30;;;;;;5206797;28;20510;-36
2021/12/11 04:20:52;;;;;;;57.57;42.53;;;14.00;64.10;;;;;;5207482;28;20049;-42
2021/12/11 04:23:23;;;;;;;59.83;42.30;;;14.00;63.90;;;;;;5205528;28;20099;-34
2021/12/11 04:25:55;;;;;;;57.77;41.93;;;14.00;63.90;;;;;;5188630;28;20046;-42
2021/12/11 04:28:29;;;;;;;53.50;40.00;;;13.90;64.00;;;;;;5205411;28;20475;-39
2021/12/11 04:31:05;;;;;;;57.90;40.67;;;13.90;64.90;;;;;;5205810;28;20103;-37
2021/12/11 04:33:40;;;;;;;57.30;42.87;;;13.90;65.20;;;;;;5205168;28;20050;-39
2021/12/11 04:36:15;;;;;;;56.27;41.37;;;13.90;65.10;;;;;;5206894;28;20056;-34
2021/12/11 04:38:47;;;;;;;53.43;41.33;;;14.00;64.70;;;;;;5206765;28;20060;-35
2021/12/11 04:41:24;;;;;;;57.00;41.30;;;14.00;64.40;;;;;;5206272;28;20120;-34
2021/12/11 04:43:56;;;;;;;54.47;40.13;;;14.00;64.40;;;;;;5206795;28;20152;-37
2021/12/11 04:46:27;;;;;;;54.43;39.63;;;13.90;64.10;;;;;;5205917;28;20042;-34
2021/12/11 04:49:09;;;;;;;55.87;39.63;;;13.90;64.00;;;;;;5206953;28;20069;-38
2021/12/11 04:57:25;;;;;;;56.70;40.20;;;13.90;63.80;;;;;;5189984;28;20057;-39
2021/12/11 05:07:40;;;;;;;56.40;39.73;;;13.80;63.40;;;;;;5211033;28;20053;-41
2021/12/11 05:10:25;;;;;;;51.43;38.90;;;13.80;63.30;;;;;;5208803;28;20057;-36
2021/12/11 05:12:57;;;;;;;53.37;39.90;;;13.80;63.20;;;;;;5210293;28;20134;-37
2021/12/11 05:15:33;;;;;;;54.95;40.85;;;13.80;63.20;;;;;;5210176;28;20069;-34
2021/12/11 05:18:09;;;;;;;51.53;39.67;;;13.80;63.00;;;;;;5210386;28;20052;-35
2021/12/11 05:20:41;;;;;;;60.63;43.10;;;13.80;63.10;;;;;;5207802;28;20125;-38
2021/12/11 05:23:12;;;;;;;64.50;46.20;;;13.70;63.00;;;;;;5210241;28;20081;-36
2021/12/11 05:25:44;;;;;;;61.60;44.70;;;13.70;63.00;;;;;;5208417;28;20084;-40
2021/12/11 05:28:15;;;;;;;66.20;46.77;;;13.70;63.00;;;;;;5209840;28;20068;-37
2021/12/11 05:30:48;;;;;;;68.63;47.30;;;13.70;63.10;;;;;;5209853;28;20052;-35
2021/12/11 05:33:19;;;;;;;64.50;44.97;;;13.80;63.10;;;;;;5209919;28;20505;-42
2021/12/11 05:35:50;;;;;;;73.93;53.13;;;13.70;63.20;;;;;;5209402;28;20049;-41
2021/12/11 05:38:22;;;;;;;77.93;52.57;;;13.70;63.10;;;;;;5209868;28;20053;-35
2021/12/11 05:40:58;;;;;;;69.37;48.80;;;13.70;63.30;;;;;;5209435;28;20482;-37
2021/12/11 05:43:30;;;;;;;70.43;48.00;;;13.70;63.40;;;;;;5210176;28;20092;-38
2021/12/11 05:46:02;;;;;;;64.43;45.15;;;13.70;63.70;;;;;;5208991;28;20055;-40
2021/12/11 05:48:33;;;;;;;67.57;47.83;;;13.70;64.40;;;;;;5209190;28;20398;-36
2021/12/11 05:51:05;;;;;;;73.00;49.30;;;13.70;65.00;;;;;;5209822;28;20041;-37
2021/12/11 05:53:36;;;;;;;81.37;55.40;;;13.70;65.00;;;;;;5209004;28;20427;-37
2021/12/11 05:56:11;;;;;;;76.63;51.20;;;13.70;64.70;;;;;;5208710;28;20132;-35
2021/12/11 06:01:45;;;;;;;73.73;48.57;;;13.70;64.10;;;;;;5209506;28;20053;-38
2021/12/11 06:04:31;;;;;;;67.05;45.22;;;13.70;64.10;;;;;;5209056;28;20145;-33
2021/12/11 06:07:05;;;;;;;63.93;45.67;;;13.70;64.00;;;;;;5208936;28;20517;-39
2021/12/11 06:09:37;;;;;;;66.70;44.90;;;13.70;63.90;;;;;;5208522;28;20057;-38
2021/12/11 06:12:11;;;;;;;63.10;44.40;;;13.70;64.50;;;;;;5207698;28;20487;-38
2021/12/11 06:14:42;;;;;;;65.55;43.88;;;13.60;64.40;;;;;;5192133;28;20049;-41
2021/12/11 06:17:16;;;;;;;58.40;42.27;;;13.60;64.30;;;;;;5207721;28;20033;-39
2021/12/11 06:19:52;;;;;;;57.40;43.07;;;13.60;64.60;;;;;;5202256;28;20132;-35
2021/12/11 06:22:26;;;;;;;65.00;45.43;;;13.60;64.40;;;;;;5199349;28;20084;-34
2021/12/11 06:25:00;;;;;;;67.43;46.27;;;13.60;64.20;;;;;;5192819;28;20049;-42
2021/12/11 06:27:31;;;;;;;61.20;42.87;;;13.60;64.00;;;;;;5204143;28;20094;-42
2021/12/11 06:30:04;;;;;;;55.80;39.13;;;13.60;63.90;;;;;;5205911;28;20106;-40
2021/12/11 06:32:35;;;;;;;50.20;38.65;;;13.70;63.80;;;;;;5205038;28;20041;-35
2021/12/11 06:35:13;;;;;;;49.07;37.50;;;13.70;63.70;;;;;;5190637;28;20376;-37
2021/12/11 06:37:44;;;;;;;48.87;36.70;;;13.70;63.80;;;;;;5205845;28;20053;-35
2021/12/11 06:40:15;;;;;;;49.30;38.50;;;13.70;63.80;;;;;;5205807;28;20052;-40
2021/12/11 06:42:47;;;;;;;70.33;51.97;;;13.70;63.90;;;;;;5204985;28;20053;-37
2021/12/11 06:45:19;;;;;;;98.30;65.77;;;13.60;63.70;;;;;;5190383;28;20399;-35
2021/12/11 06:47:50;;;;;;;147.75;94.55;;;13.70;63.90;;;;;;5204812;28;20045;-36
2021/12/11 06:50:21;;;;;;;102.87;67.80;;;13.70;64.00;;;;;;5205862;28;20053;-37
2021/12/11 06:52:53;;;;;;;56.90;43.30;;;13.70;64.10;;;;;;5205728;28;20060;-37
2021/12/11 06:55:24;;;;;;;55.20;41.73;;;13.60;64.10;;;;;;5202855;28;20496;-35
2021/12/11 06:57:55;;;;;;;53.80;41.00;;;13.60;64.00;;;;;;5189117;28;20053;-41
2021/12/11 07:00:28;;;;;;;59.37;42.10;;;13.60;64.10;;;;;;5204636;28;20048;-37
2021/12/11 07:02:59;;;;;;;64.90;47.42;;;13.70;64.20;;;;;;5207234;28;20045;-34
2021/12/11 07:05:30;;;;;;;72.27;52.10;;;13.60;64.20;;;;;;5207421;28;20045;-38
2021/12/11 07:08:04;;;;;;;66.43;48.90;;;13.60;64.20;;;;;;5200102;28;20098;-40
2021/12/11 07:10:35;;;;;;;81.07;54.40;;;13.60;64.40;;;;;;5199626;28;20041;-37
2021/12/11 07:13:06;;;;;;;90.57;58.50;;;13.60;64.50;;;;;;5204307;28;20037;-32
2021/12/11 07:15:37;;;;;;;57.80;42.40;;;13.60;64.60;;;;;;5205171;28;20084;-36
2021/12/11 07:18:08;;;;;;;52.93;41.27;;;13.60;64.50;;;;;;5205643;28;20488;-37
2021/12/11 07:20:39;;;;;;;52.73;40.23;;;13.60;64.60;;;;;;5204727;28;20053;-35
2021/12/11 07:23:10;;;;;;;68.33;47.90;;;13.60;64.00;;;;;;5204329;28;20038;-39
2021/12/11 07:25:51;;;;;;;67.93;50.40;;;13.60;64.30;;;;;;5205303;28;20048;-33
2021/12/11 07:28:22;;;;;;;64.40;48.90;;;13.70;64.20;;;;;;5205157;28;20578;-36
2021/12/11 07:30:54;;;;;;;382.50;222.63;;;13.70;64.40;;;;;;5205215;28;20059;-34
2021/12/11 07:33:25;;;;;;;524.42;325.05;;;13.70;64.40;;;;;;5205283;28;20418;-36
2021/12/11 07:35:56;;;;;;;381.67;222.40;;;13.70;64.50;;;;;;5204995;28;20053;-38
2021/12/11 07:38:27;;;;;;;292.10;171.40;;;13.70;64.70;;;;;;5186166;28;20764;-36
2021/12/11 07:41:02;;;;;;;245.67;149.27;;;13.80;64.80;;;;;;5203536;28;20766;-35
2021/12/11 07:43:36;;;;;;;129.43;86.70;;;13.70;64.70;;;;;;5205146;28;20086;-38
2021/12/11 07:46:07;;;;;;;242.48;150.38;;;13.80;64.80;;;;;;5204949;28;20132;-40
2021/12/11 07:48:38;;;;;;;164.30;109.27;;;13.70;64.80;;;;;;5205067;28;20052;-40
2021/12/11 07:51:10;;;;;;;219.70;138.63;;;13.70;64.60;;;;;;5204737;28;20045;-41
2021/12/11 07:53:41;;;;;;;153.73;102.87;;;13.80;64.60;;;;;;5204916;28;20211;-36
2021/12/11 07:56:12;;;;;;;136.30;93.10;;;13.80;64.70;;;;;;5204987;28;20437;-42
2021/12/11 07:58:44;;;;;;;108.93;76.33;;;13.80;64.40;;;;;;5204940;28;20045;-43
2021/12/11 08:01:15;;;;;;;129.27;85.50;;;13.80;64.50;;;;;;5204844;28;20049;-40
2021/12/11 08:03:46;;;;;;;138.17;92.27;;;13.80;64.30;;;;;;5204648;28;20048;-34
2021/12/11 08:06:17;;;;;;;100.30;68.57;;;13.80;64.40;;;;;;5204924;28;20512;-33
2021/12/11 08:08:48;;;;;;;132.57;87.90;;;13.80;64.40;;;;;;5203242;28;20050;-33
2021/12/11 08:11:19;;;;;;;90.50;61.67;;;13.80;64.50;;;;;;5205124;28;20057;-38
2021/12/11 08:13:51;;;;;;;103.07;69.23;;;13.80;64.40;;;;;;5204422;28;20147;-40
2021/12/11 08:16:24;;;;;;;113.07;80.90;;;13.80;64.60;;;;;;5204189;28;20046;-35
2021/12/11 08:18:55;;;;;;;127.07;89.30;;;13.90;64.70;;;;;;5204586;28;20069;-32
2021/12/11 08:21:26;;;;;;;130.70;92.83;;;13.90;64.60;;;;;;5204081;28;20140;-36
2021/12/11 08:24:04;;;;;;;116.33;82.17;;;13.90;65.20;;;;;;5204518;28;20041;-36
2021/12/11 08:26:35;;;;;;;111.63;74.77;;;13.90;64.60;;;;;;5203251;28;20073;-35
2021/12/11 08:29:08;;;;;;;120.17;82.10;;;13.90;64.70;;;;;;5204026;28;20109;-32
2021/12/11 08:31:40;;;;;;;110.70;80.35;;;13.90;64.80;;;;;;5206444;28;20507;-38
2021/12/11 08:34:11;;;;;;;98.03;65.53;;;13.90;65.10;;;;;;5205030;28;20515;-32
2021/12/11 08:36:43;;;;;;;334.80;204.83;;;14.00;65.00;;;;;;5197379;28;20084;-31
2021/12/11 08:39:15;;;;;;;167.97;104.57;;;14.10;64.80;;;;;;5207009;28;20049;-33
2021/12/11 08:41:51;;;;;;;130.20;86.40;;;14.20;65.00;;;;;;5208456;28;20048;-37
2021/12/11 08:44:23;;;;;;;;;;;14.30;64.90;;;;;;5208930;28;20410;-40
2021/12/11 08:46:56;;;;;;;;;;;14.40;65.00;;;;;;5198142;28;19921;-31
2021/12/11 08:49:28;;;;;;;;;;;14.50;64.90;;;;;;5208401;28;19957;-33
2021/12/11 08:52:02;;;;;;;;;;;14.60;64.60;;;;;;5207471;28;20003;-35
2021/12/11 08:54:33;;;;;;;;;;;14.60;64.30;;;;;;5207668;28;19968;-31
2021/12/11 08:57:05;;;;;;;;;;;14.80;64.20;;;;;;5210708;28;19967;-37
2021/12/11 08:59:41;;;;;;;;;;;14.80;63.90;;;;;;5210351;28;19921;-34
2021/12/11 09:02:16;;;;;;;;;;;14.90;63.90;;;;;;5210508;28;20347;-39
2021/12/11 09:04:57;;;;;;;;;;;14.90;63.80;;;;;;5209767;28;19927;-34
2021/12/11 09:07:33;;;;;;;;;;;14.90;64.00;;;;;;5210465;28;19967;-34
2021/12/11 09:10:07;;;;;;;;;;;14.90;64.10;;;;;;5209834;28;19921;-37
2021/12/11 09:12:39;;;;;;;;;;;14.90;64.40;;;;;;5209751;28;20004;-35
2021/12/11 09:15:12;;;;;;;;;;;14.90;64.40;;;;;;5209500;28;19921;-34
2021/12/11 09:17:55;;;;;;;;;;;14.90;64.60;;;;;;5209066;28;19927;-32
2021/12/11 09:20:28;;;;;;;;;;;14.90;64.70;;;;;;5210126;28;19947;-37
2021/12/11 09:23:25;;;;;;;;;;;14.90;65.10;;;;;;5209319;28;19943;-38
2021/12/11 09:25:56;;;;;;;;;;;14.90;65.70;;;;;;5202443;28;19951;-34
2021/12/11 09:28:31;;;;;;;;;;;14.80;65.30;;;;;;5201530;28;19960;-37
2021/12/11 09:31:12;;;;;;;;;;;14.80;65.20;;;;;;5195052;28;20379;-42
2021/12/11 09:33:45;;;;;;;;;;;14.80;65.50;;;;;;5197356;28;20749;-38
2021/12/11 09:36:22;;;;;;;;;;;14.80;65.30;;;;;;5190591;28;19929;-40
2021/12/11 09:39:29;;;;;;;;;;;14.80;65.50;;;;;;5177036;28;2002596;-35
2021/12/11 09:42:00;;;;;;;;;;;14.80;65.40;;;;;;5282049;28;19930;-38
2021/12/11 09:44:36;;;;;;;;;;;14.80;65.60;;;;;;5278705;28;20305;-41
2021/12/11 09:47:09;;;;;;;;;;;14.80;65.40;;;;;;5282372;28;20258;-42
2021/12/11 09:49:42;;;;;;;;;;;14.70;65.50;;;;;;5280285;28;19924;-41
2021/12/11 09:52:18;;;;;;;;;;;14.70;65.80;;;;;;5282512;28;19981;-37
2021/12/11 09:54:53;;;;;;;;;;;14.70;66.10;;;;;;5277644;28;19931;-34
2021/12/11 09:57:25;;;;;;;;;;;14.70;65.70;;;;;;5272830;28;20399;-34
2021/12/11 09:59:56;;;;;;;;;;;14.70;65.50;;;;;;5253120;28;19925;-33
2021/12/11 10:02:28;;;;;;;;;;;14.80;65.80;;;;;;5285427;28;20344;-37
2021/12/11 10:05:00;;;;;;;;;;;14.80;65.70;;;;;;5285681;28;19966;-38
2021/12/11 10:07:38;;;;;;;;;;;14.90;65.60;;;;;;5285776;28;19967;-37
2021/12/11 10:10:11;;;;;;;;;;;14.90;65.70;;;;;;5285232;28;19970;-38
2021/12/11 10:12:44;;;;;;;;;;;14.90;65.70;;;;;;5285405;28;20024;-42
2021/12/11 10:15:15;;;;;;;;;;;14.90;65.40;;;;;;5267337;28;19924;-42
2021/12/11 10:17:48;;;;;;;;;;;14.90;65.50;;;;;;5285437;28;20373;-38
2021/12/11 10:20:39;;;;;;;;;;;14.90;65.50;;;;;;5284769;28;19973;-35
2021/12/11 10:23:11;;;;;;;;;;;14.90;65.70;;;;;;5267004;28;19924;-39
2021/12/11 10:25:42;;;;;;;;;;;14.90;65.70;;;;;;5266907;28;19924;-40
2021/12/11 10:28:13;;;;;;;;;;;14.80;65.50;;;;;;5267099;28;20390;-35
2021/12/11 10:30:48;;;;;;;;;;;14.80;65.40;;;;;;5285207;28;20266;-32
2021/12/11 10:33:20;;;;;;;;;;;14.80;65.90;;;;;;5285153;28;19928;-42
2021/12/11 10:35:52;;;;;;;;;;;14.80;65.90;;;;;;5284834;28;19932;-37
2021/12/11 10:38:23;;;;;;;;;;;14.70;65.90;;;;;;5281603;28;19932;-40
2021/12/11 10:40:54;;;;;;;;;;;14.70;66.10;;;;;;5256118;28;20284;-37
2021/12/11 10:43:29;;;;;;;;;;;14.70;66.00;;;;;;5253240;28;19928;-39
2021/12/11 10:46:00;;;;;;;;;;;14.70;65.80;;;;;;5259925;28;19970;-38
2021/12/11 10:48:32;;;;;;;;;;;14.70;66.20;;;;;;5257283;28;19925;-43
2021/12/11 10:51:22;;;;;;;;;;;14.60;66.20;;;;;;5248480;28;20023;-40
2021/12/11 10:53:54;;;;;;;;;;;14.60;66.10;;;;;;5249055;28;20011;-41
2021/12/11 10:56:24;;;;;;;;;;;14.60;66.20;;;;;;5230893;28;20015;-40
2021/12/11 10:58:57;;;;;;;;;;;14.50;66.30;;;;;;5228367;28;19935;-38
2021/12/11 11:01:39;;;;;;;;;;;14.50;66.30;;;;;;5248311;28;19924;-42
2021/12/11 11:04:12;;;;;;;;;;;14.50;66.70;;;;;;5242022;28;19924;-43
2021/12/11 11:06:45;;;;;;;;;;;14.50;66.70;;;;;;5242892;28;19924;-36
2021/12/11 11:09:16;;;;;;;;;;;14.40;66.90;;;;;;5247433;28;19928;-37
2021/12/11 11:11:48;;;;;;;;;;;14.40;66.60;;;;;;5222793;28;20332;-39
2021/12/11 11:14:19;;;;;;;;;;;14.40;66.80;;;;;;5224503;28;19925;-44
2021/12/11 11:16:52;;;;;;;;;;;14.40;66.70;;;;;;5231790;28;19950;-34
2021/12/11 11:19:23;;;;;;;;;;;14.30;66.80;;;;;;5239946;28;19935;-40
2021/12/11 11:21:57;;;;;;;;;;;14.30;66.80;;;;;;5236888;28;20033;-36
2021/12/11 11:24:31;;;;;;;;;;;14.30;67.00;;;;;;5227625;28;19931;-37
2021/12/11 11:27:02;;;;;;;;;;;14.30;67.00;;;;;;5227987;28;19993;-37
2021/12/11 11:29:34;;;;;;;;;;;14.30;67.20;;;;;;5228874;28;20236;-38
2021/12/11 11:32:10;;;;;;;;;;;14.20;67.10;;;;;;5228126;28;19939;-40
2021/12/11 11:34:42;;;;;;;;;;;14.20;67.00;;;;;;5222442;28;20307;-36
2021/12/11 11:37:14;;;;;;;;;;;14.20;67.20;;;;;;5211829;28;19932;-36
2021/12/11 11:39:46;;;;;;;;;;;14.20;67.60;;;;;;5212052;28;19980;-33
2021/12/11 11:42:19;;;;;;;;;;;14.20;67.40;;;;;;5229842;28;20020;-36
2021/12/11 11:44:50;;;;;;;;;;;14.30;67.50;;;;;;5228025;28;19924;-37
2021/12/11 11:47:21;;;;;;;;;;;14.40;67.40;;;;;;5210824;28;19936;-39
2021/12/11 11:49:58;;;;;;;;;;;14.40;67.40;;;;;;5227720;28;19932;-41
2021/12/11 11:52:28;;;;;;;;;;;14.40;67.00;;;;;;5227109;28;20007;-36
2021/12/11 11:55:00;;;;;;;;;;;14.50;67.30;;;;;;5228181;28;19929;-39
2021/12/11 11:57:33;;;;;;;;;;;14.50;67.70;;;;;;5210537;28;19960;-37
2021/12/11 12:00:06;;;;;;;;;;;14.60;67.00;;;;;;5227158;28;20397;-40
2021/12/11 12:02:37;;;;;;;;;;;14.50;66.50;;;;;;5226737;28;19931;-37
2021/12/11 12:05:09;;;;;;;;;;;14.60;67.20;;;;;;5244695;28;19931;-37
2021/12/11 12:07:39;;;;;;;;;;;14.50;66.50;;;;;;5232085;28;19932;-40
2021/12/11 12:10:13;;;;;;;;;;;14.50;66.60;;;;;;5249721;28;19928;-36
2021/12/11 12:12:44;;;;;;;;;;;14.50;66.80;;;;;;5249553;28;20365;-44
2021/12/11 12:15:17;;;;;;;;;;;14.40;66.60;;;;;;5250346;28;19924;-38
2021/12/11 12:17:48;;;;;;;;;;;14.40;66.60;;;;;;5248951;28;19925;-36
2021/12/11 12:20:19;;;;;;;;;;;14.40;66.80;;;;;;5249197;28;20381;-39
2021/12/11 12:22:50;;;;;;;;;;;14.30;66.60;;;;;;5249281;28;20011;-37
2021/12/11 12:25:21;;;;;;;;;;;14.30;66.90;;;;;;5248904;28;19983;-42
2021/12/11 12:27:52;;;;;;;;;;;14.30;67.10;;;;;;5231436;28;20041;-44
2021/12/11 12:30:25;;;;;;;;;;;14.20;67.90;;;;;;5230956;28;19935;-41
2021/12/11 12:32:56;;;;;;;;;;;14.20;68.60;;;;;;5249781;28;19931;-32
2021/12/11 12:35:28;;;;;;;;;;;14.20;69.00;;;;;;5249612;28;20004;-40
2021/12/11 12:37:59;;;;;;;;;;;14.20;68.10;;;;;;5249406;28;20442;-38
2021/12/11 12:40:37;;;;;;;;;;;14.30;68.00;;;;;;5249620;28;19931;-41
2021/12/11 12:43:21;;;;;;;99.30;74.30;;;14.20;68.00;;;;;;5249386;28;19982;-35
2021/12/11 12:45:52;;;;;;;;;;;13.70;67.60;;;;;;5232652;28;20040;-36
2021/12/11 12:48:23;;;;;;;95.13;63.87;;;11.70;71.40;;;;;;5249037;28;19974;-41
2021/12/11 12:51:00;;;;;;;97.60;67.13;;;10.50;73.50;;;;;;5249245;28;20490;-40
2021/12/11 12:53:33;;;;;;;;;;;9.80;76.10;;;;;;5231689;28;20051;-40
2021/12/11 12:56:13;;;;;;;101.47;66.67;;;9.50;76.70;;;;;;5231798;28;20393;-38
2021/12/11 12:58:55;;;;;;;111.13;72.53;;;9.20;77.70;;;;;;5231166;28;20040;-41
2021/12/11 13:01:33;;;;;;;116.37;85.00;;;9.00;78.10;;;;;;5248678;28;20124;-34
2021/12/11 13:04:05;;;;;;;;;;;8.80;79.00;;;;;;5249084;28;20049;-38
2021/12/11 13:06:38;;;;;;;;;;;8.70;78.80;;;;;;5249361;28;19920;-41
2021/12/11 13:09:28;;;;;;;115.00;74.43;;;8.60;79.30;;;;;;5248347;28;19920;-39
2021/12/11 13:12:11;;;;;;;113.23;77.97;;;8.70;80.40;;;;;;5248227;28;20124;-40
2021/12/11 13:14:42;;;;;;;112.00;75.37;;;8.50;81.40;;;;;;5248867;28;20125;-39
2021/12/11 13:17:25;;;;;;;107.17;73.43;;;8.50;80.60;;;;;;5197177;28;20070;-38
2021/12/11 13:19:58;;;;;;;112.77;75.00;;;8.40;80.70;;;;;;5231429;28;20052;-39
2021/12/11 13:22:35;;;;;;;114.57;77.17;;;8.40;80.70;;;;;;5230382;28;20064;-37
2021/12/11 13:25:14;;;;;;;105.63;73.50;;;8.30;81.00;;;;;;5229428;28;20434;-37
2021/12/11 13:27:48;;;;;;;105.03;70.57;;;8.30;81.00;;;;;;5231454;28;20066;-37
2021/12/11 13:30:22;;;;;;;105.03;69.07;;;8.30;81.30;;;;;;5248414;28;20402;-43
2021/12/11 13:32:53;;;;;;;106.80;72.00;;;8.30;81.40;;;;;;5248870;28;20430;-35
2021/12/11 13:35:26;;;;;;;110.80;77.73;;;8.30;81.80;;;;;;5230801;28;20071;-36
2021/12/11 13:37:57;;;;;;;108.82;77.00;;;8.20;81.50;;;;;;5248780;28;20060;-36
2021/12/11 13:40:28;;;;;;;112.03;76.57;;;8.20;81.20;;;;;;5248772;28;20045;-39
2021/12/11 13:43:00;;;;;;;118.67;77.77;;;8.20;81.90;;;;;;5248444;28;20064;-42
2021/12/11 13:45:52;;;;;;;119.63;78.20;;;8.20;82.10;;;;;;5248065;28;20048;-41
2021/12/11 13:48:28;;;;;;;131.77;81.03;;;8.20;81.90;;;;;;5248346;28;20040;-38
2021/12/11 13:51:11;;;;;;;118.10;75.57;;;8.20;82.40;;;;;;5230289;28;20048;-41
2021/12/11 13:53:45;;;;;;;137.67;89.03;;;8.10;83.60;;;;;;5230635;28;20118;-42